createdAt,value
2023-03-12T00:00:22.665Z,2.80
2023-03-12T00:03:09.034Z,3.00
2023-03-12T00:05:54.988Z,3.00
2023-03-12T00:08:41.017Z,3.00
2023-03-12T00:11:27.652Z,3.00
2023-03-12T00:14:14.317Z,3.00
2023-03-12T00:17:00.330Z,3.10
2023-03-12T00:19:46.348Z,3.10
2023-03-12T00:22:32.822Z,3.10
2023-03-12T00:25:19.065Z,3.00
2023-03-12T00:28:05.536Z,3.00
2023-03-12T00:30:55.318Z,3.10
2023-03-12T00:33:43.516Z,3.10
2023-03-12T00:36:30.827Z,3.00
2023-03-12T00:39:17.212Z,2.80
2023-03-12T00:42:03.264Z,2.70
2023-03-12T00:44:49.379Z,2.70
2023-03-12T00:47:35.292Z,2.60
2023-03-12T00:50:21.568Z,2.60
2023-03-12T00:53:07.528Z,2.30
2023-03-12T00:55:54.041Z,2.30
2023-03-12T00:58:42.745Z,2.30
2023-03-12T01:01:29.164Z,2.40
2023-03-12T01:04:15.565Z,2.40
2023-03-12T01:07:02.025Z,2.40
2023-03-12T01:09:47.940Z,2.30
2023-03-12T01:12:34.843Z,2.20
2023-03-12T01:15:20.870Z,2.10
2023-03-12T01:18:06.564Z,2.10
2023-03-12T01:20:53.127Z,2.10
2023-03-12T01:23:39.172Z,2.10
2023-03-12T01:26:25.240Z,2.00
2023-03-12T01:29:11.225Z,2.00
2023-03-12T01:31:57.075Z,1.90
2023-03-12T01:34:44.196Z,2.00
2023-03-12T01:37:31.796Z,2.10
2023-03-12T01:40:21.682Z,2.20
2023-03-12T01:43:30.876Z,2.20
2023-03-12T01:46:30.286Z,2.10
2023-03-12T01:49:31.606Z,2.10
2023-03-12T01:52:26.896Z,2.10
2023-03-12T01:55:16.436Z,2.10
2023-03-12T01:58:06.726Z,2.00
2023-03-12T02:00:53.398Z,2.00
2023-03-12T02:03:39.712Z,2.00
2023-03-12T02:06:43.841Z,2.10
2023-03-12T02:09:32.192Z,2.20
2023-03-12T02:12:18.732Z,2.20
2023-03-12T02:15:05.643Z,2.10
2023-03-12T02:17:54.173Z,2.10
2023-03-12T02:20:59.054Z,2.10
2023-03-12T02:23:51.252Z,2.10
2023-03-12T02:26:39.147Z,2.20
2023-03-12T02:29:30.363Z,2.20
2023-03-12T02:32:36.190Z,2.20
2023-03-12T02:35:22.835Z,2.20
2023-03-12T02:38:37.126Z,2.20
2023-03-12T02:41:49.130Z,2.20
2023-03-12T02:44:37.342Z,2.20
2023-03-12T02:47:23.679Z,2.20
2023-03-12T02:50:10.303Z,2.30
2023-03-12T02:52:56.219Z,2.10
2023-03-12T02:55:42.630Z,1.90
2023-03-12T02:58:28.793Z,1.90
2023-03-12T03:01:15.107Z,1.90
2023-03-12T03:04:02.736Z,1.80
2023-03-12T03:06:49.128Z,1.70
2023-03-12T03:09:35.484Z,1.80
2023-03-12T03:12:22.952Z,1.90
2023-03-12T03:15:10.779Z,1.90
2023-03-12T03:17:58.397Z,2.00
2023-03-12T03:20:45.019Z,2.10
2023-03-12T03:23:31.540Z,2.10
2023-03-12T03:26:20.868Z,2.00
2023-03-12T03:29:07.598Z,2.00
2023-03-12T03:31:53.955Z,2.00
2023-03-12T03:34:40.910Z,2.00
2023-03-12T03:37:26.893Z,2.10
2023-03-12T03:40:13.537Z,2.20
2023-03-12T03:42:59.701Z,2.30
2023-03-12T03:45:46.426Z,2.40
2023-03-12T03:48:33.717Z,2.40
2023-03-12T03:51:20.437Z,2.40
2023-03-12T03:54:10.879Z,2.50
2023-03-12T03:56:58.125Z,2.50
2023-03-12T03:59:44.552Z,2.30
2023-03-12T04:02:31.044Z,2.20
2023-03-12T04:05:19.640Z,2.20
2023-03-12T04:08:07.310Z,2.30
2023-03-12T04:10:53.987Z,2.30
2023-03-12T04:13:41.450Z,2.40
2023-03-12T04:16:28.003Z,2.40
2023-03-12T04:19:14.755Z,2.50
2023-03-12T04:22:01.886Z,2.50
2023-03-12T04:24:48.419Z,2.50
2023-03-12T04:27:35.176Z,2.50
2023-03-12T04:30:21.679Z,2.50
2023-03-12T04:33:08.398Z,2.50
2023-03-12T04:35:55.465Z,2.40
2023-03-12T04:38:41.934Z,2.40
2023-03-12T04:41:28.002Z,2.40
2023-03-12T04:44:20.898Z,2.40
2023-03-12T04:47:07.016Z,2.40
2023-03-12T04:49:53.032Z,2.30
2023-03-12T04:52:40.576Z,2.40
2023-03-12T04:55:27.475Z,2.40
2023-03-12T04:58:16.104Z,2.50
2023-03-12T05:01:02.496Z,2.50
2023-03-12T05:03:48.585Z,2.50
2023-03-12T05:06:34.761Z,2.60
2023-03-12T05:09:21.532Z,2.60
2023-03-12T05:12:07.612Z,2.70
2023-03-12T05:14:53.942Z,2.70
2023-03-12T05:17:40.231Z,2.70
2023-03-12T05:20:26.244Z,2.60
2023-03-12T05:23:12.476Z,2.60
2023-03-12T05:25:58.778Z,2.60
2023-03-12T05:28:45.570Z,2.60
2023-03-12T05:31:35.127Z,2.60
2023-03-12T05:34:23.435Z,2.60
2023-03-12T05:37:09.904Z,2.80
2023-03-12T05:39:56.920Z,2.90
2023-03-12T05:42:42.940Z,3.00
2023-03-12T05:45:28.978Z,3.10
2023-03-12T05:48:16.937Z,3.10
2023-03-12T05:51:03.043Z,3.10
2023-03-12T05:53:50.959Z,3.10
2023-03-12T05:56:37.936Z,3.10
2023-03-12T05:59:24.571Z,3.10
2023-03-12T06:02:12.496Z,3.20
2023-03-12T06:04:58.918Z,3.30
2023-03-12T06:07:44.910Z,3.30
2023-03-12T06:10:30.969Z,3.30
2023-03-12T06:13:17.194Z,3.30
2023-03-12T06:16:08.809Z,3.40
2023-03-12T06:19:00.978Z,3.40
2023-03-12T06:21:47.307Z,3.50
2023-03-12T06:24:33.755Z,3.50
2023-03-12T06:27:22.177Z,3.50
2023-03-12T06:30:09.110Z,3.60
2023-03-12T06:32:58.066Z,3.70
2023-03-12T06:35:45.609Z,3.80
2023-03-12T06:38:32.286Z,3.80
2023-03-12T06:41:20.372Z,3.80
2023-03-12T06:44:06.403Z,3.80
2023-03-12T06:46:53.055Z,3.80
2023-03-12T06:49:39.580Z,3.80
2023-03-12T06:52:25.352Z,3.90
2023-03-12T06:55:11.706Z,3.90
2023-03-12T06:57:57.873Z,3.90
2023-03-12T07:00:43.895Z,3.90
2023-03-12T07:03:30.043Z,3.90
2023-03-12T07:06:18.993Z,3.80
2023-03-12T07:09:05.478Z,3.90
2023-03-12T07:11:51.527Z,4.00
2023-03-12T07:14:37.764Z,4.00
2023-03-12T07:17:24.546Z,4.00
2023-03-12T07:20:11.582Z,4.10
2023-03-12T07:22:57.586Z,4.20
2023-03-12T07:25:44.793Z,4.20
2023-03-12T07:28:30.923Z,4.30
2023-03-12T07:31:16.904Z,4.40
2023-03-12T07:34:03.270Z,4.40
2023-03-12T07:36:49.378Z,4.50
2023-03-12T07:39:35.668Z,4.80
2023-03-12T07:42:21.782Z,5.10
2023-03-12T07:45:08.209Z,5.30
2023-03-12T07:47:54.536Z,5.50
2023-03-12T07:50:41.178Z,5.60
2023-03-12T07:53:27.682Z,5.50
2023-03-12T07:56:13.699Z,5.50
2023-03-12T07:59:00.252Z,5.60
2023-03-12T08:01:47.304Z,5.60
2023-03-12T08:04:33.614Z,5.70
2023-03-12T08:07:20.043Z,5.70
2023-03-12T08:10:08.626Z,5.60
2023-03-12T08:12:54.680Z,5.50
2023-03-12T08:15:40.436Z,5.50
2023-03-12T08:18:27.370Z,5.60
2023-03-12T08:21:16.490Z,5.60
2023-03-12T08:24:02.468Z,5.60
2023-03-12T08:26:48.739Z,5.70
2023-03-12T08:29:34.649Z,5.70
2023-03-12T08:32:20.857Z,5.70
2023-03-12T08:35:07.757Z,5.80
2023-03-12T08:37:53.923Z,5.90
2023-03-12T08:40:40.085Z,6.00
2023-03-12T08:43:29.324Z,6.10
2023-03-12T08:46:16.013Z,6.00
2023-03-12T08:49:02.152Z,6.00
2023-03-12T08:51:48.825Z,6.00
2023-03-12T08:54:34.737Z,6.00
2023-03-12T08:57:20.843Z,6.10
2023-03-12T09:00:11.502Z,6.00
2023-03-12T09:02:58.375Z,5.80
2023-03-12T09:05:45.524Z,5.80
2023-03-12T09:08:34.008Z,5.60
2023-03-12T09:11:20.182Z,5.60
2023-03-12T09:17:12.533Z,5.70
2023-03-12T09:19:58.530Z,5.90
2023-03-12T09:22:45.523Z,6.00
2023-03-12T09:25:31.651Z,6.00
2023-03-12T09:28:18.000Z,6.00
2023-03-12T09:31:05.345Z,6.10
2023-03-12T09:33:53.891Z,6.00
2023-03-12T09:36:39.671Z,5.80
2023-03-12T09:39:25.956Z,5.70
2023-03-12T09:42:38.554Z,5.60
2023-03-12T09:45:35.578Z,5.50
2023-03-12T09:48:33.610Z,5.40
2023-03-12T09:51:35.433Z,5.30
2023-03-12T09:54:32.247Z,5.10
2023-03-12T09:57:24.139Z,5.10
2023-03-12T10:00:17.146Z,5.00
2023-03-12T10:03:12.790Z,4.90
2023-03-12T10:06:16.490Z,4.80
2023-03-12T10:09:14.439Z,4.90
2023-03-12T10:12:19.063Z,4.80
2023-03-12T10:15:18.262Z,4.80
2023-03-12T10:18:48.412Z,4.70
2023-03-12T10:21:53.062Z,4.80
2023-03-12T10:24:42.325Z,4.60
2023-03-12T10:27:34.927Z,4.50
2023-03-12T10:30:25.706Z,4.50
2023-03-12T10:33:15.951Z,4.40
2023-03-12T10:36:04.047Z,4.40
2023-03-12T10:38:50.276Z,4.30
2023-03-12T10:41:37.019Z,4.40
2023-03-12T10:44:25.361Z,4.30
2023-03-12T10:47:38.018Z,4.20
2023-03-12T10:50:29.909Z,4.10
2023-03-12T10:53:22.399Z,4.10
2023-03-12T10:56:11.519Z,4.20
2023-03-12T10:58:59.927Z,4.20
2023-03-12T11:01:50.514Z,4.20
2023-03-12T11:04:37.622Z,4.20
2023-03-12T11:07:27.755Z,4.30
2023-03-12T11:10:39.886Z,4.40
2023-03-12T11:13:40.692Z,4.50
2023-03-12T11:16:31.496Z,4.60
2023-03-12T11:19:33.800Z,4.60
2023-03-12T11:22:34.366Z,4.70
2023-03-12T11:25:26.616Z,4.80
2023-03-12T11:28:21.209Z,4.90
2023-03-12T11:31:14.126Z,4.90
2023-03-12T11:34:12.616Z,5.00
2023-03-12T11:37:15.547Z,5.00
2023-03-12T11:40:14.216Z,5.10
2023-03-12T11:43:03.419Z,5.10
2023-03-12T11:46:15.694Z,5.20
2023-03-12T11:49:24.286Z,5.20
2023-03-12T11:52:10.385Z,5.20
2023-03-12T11:55:32.967Z,5.20
2023-03-12T11:58:37.876Z,5.20
2023-03-12T12:01:35.547Z,5.20
2023-03-12T12:04:33.678Z,5.50
2023-03-12T12:07:20.021Z,5.70
2023-03-12T12:10:09.597Z,5.80
2023-03-12T12:13:34.499Z,6.00
2023-03-12T12:16:29.824Z,6.10
2023-03-12T12:19:31.070Z,6.20
2023-03-12T12:22:53.787Z,6.20
2023-03-12T12:25:52.496Z,6.20
2023-03-12T12:29:14.280Z,6.30
2023-03-12T12:32:02.668Z,6.30
2023-03-12T12:35:06.995Z,6.40
2023-03-12T12:38:19.115Z,6.40
2023-03-12T12:41:27.133Z,6.40
2023-03-12T12:44:18.844Z,6.40
2023-03-12T12:47:13.166Z,6.40
2023-03-12T12:50:00.270Z,6.40
2023-03-12T12:52:54.132Z,6.50
2023-03-12T12:56:09.485Z,6.50
2023-03-12T12:59:08.490Z,6.60
2023-03-12T13:01:57.123Z,6.60
2023-03-12T13:04:44.101Z,6.70
2023-03-12T13:07:32.956Z,6.90
2023-03-12T13:10:34.545Z,7.10
2023-03-12T13:13:23.974Z,7.30
2023-03-12T13:16:30.410Z,7.60
2023-03-12T13:19:16.891Z,8.00
2023-03-12T13:22:52.370Z,8.20
2023-03-12T13:25:48.606Z,8.20
2023-03-12T13:28:56.905Z,8.10
2023-03-12T13:31:46.091Z,8.00
2023-03-12T13:34:45.587Z,8.00
2023-03-12T13:38:05.803Z,8.00
2023-03-12T13:41:02.374Z,8.10
2023-03-12T13:43:50.490Z,8.30
2023-03-12T13:46:41.595Z,8.70
2023-03-12T13:49:37.123Z,9.10
2023-03-12T13:52:40.356Z,9.30
2023-03-12T13:55:32.753Z,9.40
2023-03-12T13:58:23.673Z,9.40
2023-03-12T14:01:17.214Z,9.40
2023-03-12T14:04:10.739Z,9.40
2023-03-12T14:07:25.840Z,9.40
2023-03-12T14:10:23.788Z,9.30
2023-03-12T14:13:34.348Z,9.50
2023-03-12T14:16:43.108Z,9.70
2023-03-12T14:19:32.750Z,9.80
2023-03-12T14:22:22.810Z,10.30
2023-03-12T14:25:24.244Z,10.60
2023-03-12T14:28:17.100Z,10.80
2023-03-12T14:31:12.736Z,11.30
2023-03-12T14:34:15.328Z,11.90
2023-03-12T14:37:11.168Z,11.90
2023-03-12T14:40:08.635Z,11.60
2023-03-12T14:42:59.156Z,11.20
2023-03-12T14:45:45.346Z,10.90
2023-03-12T14:48:36.975Z,10.60
2023-03-12T14:51:26.537Z,10.40
2023-03-12T14:54:21.312Z,10.20
2023-03-12T14:57:15.566Z,10.00
2023-03-12T15:00:01.856Z,10.00
2023-03-12T15:02:47.854Z,9.80
2023-03-12T15:05:34.579Z,9.50
2023-03-12T15:08:21.259Z,9.30
2023-03-12T15:11:07.209Z,9.10
2023-03-12T15:13:55.878Z,9.00
2023-03-12T15:16:43.430Z,8.90
2023-03-12T15:19:35.235Z,8.80
2023-03-12T15:22:24.630Z,8.70
2023-03-12T15:25:32.007Z,8.70
2023-03-12T15:28:18.440Z,8.70
2023-03-12T15:31:23.550Z,8.70
2023-03-12T15:34:12.506Z,8.80
2023-03-12T15:37:01.139Z,8.90
2023-03-12T15:39:54.404Z,8.90
2023-03-12T15:42:43.932Z,9.00
2023-03-12T15:45:39.530Z,9.00
2023-03-12T15:48:36.200Z,8.90
2023-03-12T15:51:35.761Z,8.90
2023-03-12T15:54:28.262Z,8.90
2023-03-12T15:57:23.873Z,8.90
2023-03-12T16:00:18.862Z,9.00
2023-03-12T16:03:08.668Z,9.00
2023-03-12T16:05:57.260Z,9.10
2023-03-12T16:08:50.862Z,9.10
2023-03-12T16:11:38.148Z,9.10
2023-03-12T16:14:36.215Z,9.10
2023-03-12T16:17:23.299Z,9.20
2023-03-12T16:20:12.651Z,9.20
2023-03-12T16:22:58.887Z,9.30
2023-03-12T16:25:48.489Z,9.30
2023-03-12T16:28:36.447Z,9.30
2023-03-12T16:31:22.838Z,9.30
2023-03-12T16:34:12.495Z,9.30
2023-03-12T16:36:59.253Z,9.30
2023-03-12T16:39:46.410Z,9.30
2023-03-12T16:42:34.567Z,9.20
2023-03-12T16:45:22.609Z,9.20
2023-03-12T16:48:17.724Z,9.30
2023-03-12T16:51:04.347Z,9.20
2023-03-12T16:54:01.986Z,9.20
2023-03-12T16:56:53.634Z,9.20
2023-03-12T16:59:39.783Z,9.10
2023-03-12T17:02:26.011Z,9.10
2023-03-12T17:05:13.157Z,9.10
2023-03-12T17:07:59.495Z,9.10
2023-03-12T17:10:45.655Z,9.00
2023-03-12T17:13:31.890Z,9.00
2023-03-12T17:16:18.454Z,8.90
2023-03-12T17:19:04.697Z,8.90
2023-03-12T17:21:50.711Z,8.90
2023-03-12T17:24:36.995Z,8.80
2023-03-12T17:27:23.349Z,8.80
2023-03-12T17:30:10.191Z,8.80
2023-03-12T17:33:07.130Z,8.70
2023-03-12T17:36:01.732Z,8.60
2023-03-12T17:38:50.423Z,8.60
2023-03-12T17:41:36.809Z,8.50
2023-03-12T17:44:24.126Z,8.40
2023-03-12T17:47:10.346Z,8.40
2023-03-12T17:49:56.372Z,8.30
2023-03-12T17:52:42.408Z,8.30
2023-03-12T17:55:28.515Z,8.20
2023-03-12T17:58:14.420Z,8.20
2023-03-12T18:01:00.627Z,8.10
2023-03-12T18:03:46.831Z,8.10
2023-03-12T18:06:33.089Z,8.10
2023-03-12T18:09:19.163Z,8.10
2023-03-12T18:12:06.508Z,8.10
2023-03-12T18:14:52.755Z,8.10
2023-03-12T18:17:40.147Z,8.10
2023-03-12T18:20:37.804Z,8.10
2023-03-12T18:23:25.823Z,8.20
2023-03-12T18:26:12.314Z,8.10
2023-03-12T18:28:59.333Z,8.10
2023-03-12T18:31:45.724Z,8.10
2023-03-12T18:34:31.566Z,8.10
2023-03-12T18:37:17.491Z,8.00
2023-03-12T18:40:05.387Z,8.00
2023-03-12T18:42:51.517Z,8.00
2023-03-12T18:45:41.458Z,7.90
2023-03-12T18:48:27.745Z,7.90
2023-03-12T18:51:13.971Z,7.90
2023-03-12T18:54:00.384Z,7.80
2023-03-12T18:56:46.789Z,7.80
2023-03-12T18:59:32.960Z,7.80
2023-03-12T19:02:19.032Z,7.80
2023-03-12T19:05:05.461Z,7.80
2023-03-12T19:07:51.663Z,7.80
2023-03-12T19:10:40.252Z,7.70
2023-03-12T19:13:26.571Z,7.80
2023-03-12T19:16:12.898Z,7.80
2023-03-12T19:18:59.522Z,7.80
2023-03-12T19:21:45.532Z,7.80
2023-03-12T19:24:31.834Z,7.80
2023-03-12T19:27:18.187Z,7.70
2023-03-12T19:30:05.014Z,7.70
2023-03-12T19:32:51.255Z,7.70
2023-03-12T19:35:41.574Z,7.80
2023-03-12T19:38:27.848Z,7.80
2023-03-12T19:41:14.167Z,7.70
2023-03-12T19:44:00.092Z,7.70
2023-03-12T19:46:46.088Z,7.70
2023-03-12T19:49:32.136Z,7.70
2023-03-12T19:52:19.755Z,7.70
2023-03-12T19:55:06.184Z,7.70
2023-03-12T19:57:53.117Z,7.80
2023-03-12T20:00:39.187Z,7.90
2023-03-12T20:03:25.338Z,7.80
2023-03-12T20:06:12.504Z,7.80
2023-03-12T20:08:59.303Z,7.80
2023-03-12T20:11:45.344Z,7.80
2023-03-12T20:14:31.567Z,7.90
2023-03-12T20:17:17.367Z,7.90
2023-03-12T20:20:05.798Z,7.80
2023-03-12T20:22:51.948Z,7.80
2023-03-12T20:25:41.695Z,7.80
2023-03-12T20:28:27.852Z,7.90
2023-03-12T20:31:16.200Z,7.90
2023-03-12T20:34:02.148Z,7.90
2023-03-12T20:36:48.614Z,7.90
2023-03-12T20:39:34.740Z,7.90
2023-03-12T20:42:20.957Z,7.90
2023-03-12T20:45:07.563Z,7.90
2023-03-12T20:47:53.865Z,7.90
2023-03-12T20:50:40.074Z,7.90
2023-03-12T20:53:26.393Z,7.90
2023-03-12T20:56:13.135Z,7.90
2023-03-12T20:58:59.515Z,7.90
2023-03-12T21:01:45.669Z,7.90
2023-03-12T21:04:31.866Z,7.90
2023-03-12T21:07:18.039Z,7.90
2023-03-12T21:10:04.646Z,7.90
2023-03-12T21:12:50.785Z,7.90
2023-03-12T21:15:38.217Z,7.90
2023-03-12T21:18:24.991Z,7.80
2023-03-12T21:21:11.635Z,7.80
2023-03-12T21:23:57.685Z,7.80
2023-03-12T21:26:45.057Z,7.80
2023-03-12T21:29:31.322Z,7.70
2023-03-12T21:32:17.337Z,7.80
2023-03-12T21:35:04.996Z,7.80
2023-03-12T21:37:51.275Z,7.80
2023-03-12T21:40:37.749Z,7.80
2023-03-12T21:43:23.733Z,7.90
2023-03-12T21:46:12.596Z,7.90
2023-03-12T21:48:59.052Z,7.90
2023-03-12T21:51:45.462Z,7.90
2023-03-12T21:54:36.816Z,7.90
2023-03-12T21:57:22.935Z,7.90
2023-03-12T22:00:14.068Z,7.90
2023-03-12T22:02:59.826Z,7.80
2023-03-12T22:05:51.951Z,7.80
2023-03-12T22:08:38.592Z,7.80
2023-03-12T22:11:24.827Z,7.80
2023-03-12T22:14:10.812Z,7.80
2023-03-12T22:16:56.985Z,7.80
2023-03-12T22:19:43.322Z,7.80
2023-03-12T22:22:29.415Z,7.80
2023-03-12T22:25:15.438Z,7.80
2023-03-12T22:28:01.343Z,7.80
2023-03-12T22:30:47.659Z,7.80
2023-03-12T22:33:38.143Z,7.80
2023-03-12T22:36:24.659Z,7.90
2023-03-12T22:39:10.904Z,7.90
2023-03-12T22:41:57.027Z,7.90
2023-03-12T22:44:43.075Z,7.90
2023-03-12T22:47:29.064Z,8.00
2023-03-12T22:50:15.189Z,8.00
2023-03-12T22:53:01.216Z,8.00
2023-03-12T22:55:47.231Z,8.00
2023-03-12T22:58:33.886Z,8.10
2023-03-12T23:01:21.995Z,8.10
2023-03-12T23:04:08.146Z,8.10
2023-03-12T23:07:04.413Z,8.10
2023-03-12T23:09:57.750Z,8.20
2023-03-12T23:12:43.627Z,8.20
2023-03-12T23:15:40.577Z,8.20
2023-03-12T23:18:27.537Z,8.20
2023-03-12T23:21:17.176Z,8.30
2023-03-12T23:24:03.134Z,8.20
2023-03-12T23:26:49.097Z,8.30
2023-03-12T23:29:35.329Z,8.30
2023-03-12T23:32:21.642Z,8.30
2023-03-12T23:35:07.851Z,8.30
2023-03-12T23:37:56.413Z,8.20
2023-03-12T23:40:42.478Z,8.20
2023-03-12T23:43:28.697Z,8.20
2023-03-12T23:46:19.180Z,8.20
2023-03-12T23:49:06.098Z,8.10
2023-03-12T23:51:52.350Z,8.10
2023-03-12T23:54:38.454Z,8.10
2023-03-12T23:57:24.460Z,8.10
